createdAt,value
2023-01-22T00:02:09.827Z,101630.41
2023-01-22T00:04:40.324Z,101627.06
2023-01-22T00:07:11.578Z,101626.37
2023-01-22T00:09:43.123Z,101631.52
2023-01-22T00:12:13.729Z,101626.69
2023-01-22T00:14:44.622Z,101637.37
2023-01-22T00:17:15.119Z,101632.98
2023-01-22T00:19:45.759Z,101634.55
2023-01-22T00:22:16.379Z,101625.00
2023-01-22T00:24:46.980Z,101635.36
2023-01-22T00:27:17.545Z,101631.84
2023-01-22T00:29:48.102Z,101628.02
2023-01-22T00:32:18.791Z,101631.57
2023-01-22T00:34:50.926Z,101628.61
2023-01-22T00:37:22.847Z,101631.66
2023-01-22T00:39:53.306Z,101637.16
2023-01-22T00:42:26.605Z,101631.33
2023-01-22T00:44:58.893Z,101627.50
2023-01-22T00:47:31.128Z,101634.50
2023-01-22T00:50:07.638Z,101640.05
2023-01-22T00:52:41.280Z,101641.40
2023-01-22T00:55:13.448Z,101645.83
2023-01-22T00:57:48.382Z,101645.11
2023-01-22T01:00:22.297Z,101641.40
2023-01-22T01:03:10.307Z,101647.77
2023-01-22T01:05:41.272Z,101656.88
2023-01-22T01:08:13.530Z,101650.39
2023-01-22T01:10:47.437Z,101664.88
2023-01-22T01:13:18.489Z,101658.09
2023-01-22T01:15:51.070Z,101650.83
2023-01-22T01:18:23.085Z,101654.91
2023-01-22T01:20:58.524Z,101650.25
2023-01-22T01:23:30.187Z,101655.70
2023-01-22T01:26:00.779Z,101653.08
2023-01-22T01:28:35.635Z,101657.62
2023-01-22T01:31:17.402Z,101660.09
2023-01-22T01:33:51.611Z,101651.87
2023-01-22T01:36:47.143Z,101662.07
2023-01-22T01:39:03.544Z,101657.84
2023-01-22T01:41:37.505Z,101652.98
2023-01-22T01:44:16.761Z,101656.75
2023-01-22T01:46:56.475Z,101656.07
2023-01-22T01:49:51.504Z,101661.28
2023-01-22T01:52:22.436Z,101656.38
2023-01-22T01:54:55.934Z,101675.58
2023-01-22T01:57:31.756Z,101662.53
2023-01-22T02:00:09.719Z,101559.69
2023-01-22T02:02:40.789Z,101667.55
2023-01-22T02:05:12.301Z,101665.91
2023-01-22T02:07:47.688Z,101666.91
2023-01-22T02:10:20.245Z,101664.45
2023-01-22T02:12:59.581Z,101671.26
2023-01-22T02:15:31.997Z,101679.75
2023-01-22T02:18:06.983Z,101675.66
2023-01-22T02:20:39.658Z,101678.02
2023-01-22T02:23:11.804Z,101672.02
2023-01-22T02:25:43.766Z,101668.95
2023-01-22T02:28:15.237Z,101668.78
2023-01-22T02:30:47.868Z,101676.98
2023-01-22T02:33:25.551Z,101680.75
2023-01-22T02:36:02.571Z,101689.19
2023-01-22T02:38:35.943Z,101682.87
2023-01-22T02:41:09.734Z,101690.78
2023-01-22T02:43:45.612Z,101695.99
2023-01-22T02:46:19.239Z,101693.97
2023-01-22T02:48:51.948Z,101695.09
2023-01-22T02:51:28.964Z,101701.94
2023-01-22T02:54:01.580Z,101698.34
2023-01-22T02:56:35.952Z,101697.01
2023-01-22T02:59:11.871Z,101692.34
2023-01-22T03:01:43.578Z,101695.22
2023-01-22T03:04:17.665Z,101701.58
2023-01-22T03:06:51.266Z,101702.98
2023-01-22T03:09:23.198Z,101711.30
2023-01-22T03:11:59.111Z,101709.80
2023-01-22T03:14:52.122Z,101701.87
2023-01-22T03:17:42.820Z,101708.56
2023-01-22T03:20:35.837Z,101709.23
2023-01-22T03:23:08.104Z,101709.93
2023-01-22T03:25:39.659Z,101721.25
2023-01-22T03:28:13.780Z,101719.99
2023-01-22T03:30:48.987Z,101724.19
2023-01-22T03:33:24.091Z,101720.73
2023-01-22T03:36:02.609Z,101726.74
2023-01-22T03:38:38.629Z,101724.19
2023-01-22T03:41:15.744Z,101739.02
2023-01-22T03:43:49.767Z,101729.80
2023-01-22T03:46:22.740Z,101726.34
2023-01-22T03:48:55.123Z,101725.59
2023-01-22T03:51:28.437Z,101729.91
2023-01-22T03:54:02.633Z,101726.87
2023-01-22T03:56:34.251Z,101731.47
2023-01-22T03:59:11.569Z,101730.48
2023-01-22T04:01:43.771Z,101717.63
2023-01-22T04:04:14.942Z,101721.89
2023-01-22T04:06:46.500Z,101725.35
2023-01-22T04:09:19.885Z,101714.53
2023-01-22T04:11:52.162Z,101724.98
2023-01-22T04:14:24.272Z,101718.42
2023-01-22T04:16:56.441Z,101724.83
2023-01-22T04:19:28.434Z,101731.44
2023-01-22T04:22:00.611Z,101733.64
2023-01-22T04:24:32.889Z,101731.45
2023-01-22T04:27:04.643Z,101722.84
2023-01-22T04:29:35.593Z,101735.23
2023-01-22T04:32:06.330Z,101734.41
2023-01-22T04:34:37.438Z,101746.50
2023-01-22T04:37:09.288Z,101744.47
2023-01-22T04:39:42.927Z,101746.39
2023-01-22T04:42:19.271Z,101741.23
2023-01-22T04:44:52.409Z,101740.43
2023-01-22T04:47:28.099Z,101739.88
2023-01-22T04:49:59.215Z,101726.59
2023-01-22T04:52:32.190Z,101739.84
2023-01-22T04:55:03.758Z,101742.06
2023-01-22T04:57:34.563Z,101756.80
2023-01-22T05:00:08.044Z,101750.86
2023-01-22T05:02:39.162Z,101761.70
2023-01-22T05:05:10.584Z,101769.64
2023-01-22T05:07:41.149Z,101775.41
2023-01-22T05:10:12.138Z,101774.28
2023-01-22T05:12:43.857Z,101777.67
2023-01-22T05:15:23.683Z,101780.79
2023-01-22T05:17:46.757Z,101788.44
2023-01-22T05:20:18.116Z,101792.34
2023-01-22T05:22:48.799Z,101784.65
2023-01-22T05:25:19.601Z,101791.55
2023-01-22T05:27:50.188Z,101796.72
2023-01-22T05:30:20.987Z,101797.95
2023-01-22T05:32:53.180Z,101796.80
2023-01-22T05:35:23.739Z,101800.55
2023-01-22T05:37:54.409Z,101807.42
2023-01-22T05:40:25.002Z,101794.95
2023-01-22T05:42:57.113Z,101815.45
2023-01-22T05:45:27.698Z,101800.54
2023-01-22T05:47:58.550Z,101803.26
2023-01-22T05:50:29.128Z,101806.91
2023-01-22T05:53:00.792Z,101814.58
2023-01-22T05:55:33.143Z,101812.00
2023-01-22T05:58:06.270Z,101804.75
2023-01-22T06:00:37.286Z,101806.92
2023-01-22T06:03:07.864Z,101812.94
2023-01-22T06:05:38.551Z,101807.74
2023-01-22T06:08:09.200Z,101804.91
2023-01-22T06:10:39.888Z,101818.31
2023-01-22T06:13:10.515Z,101821.22
2023-01-22T06:15:44.028Z,101826.86
2023-01-22T06:18:14.681Z,101822.94
2023-01-22T06:20:45.290Z,101830.53
2023-01-22T06:23:16.136Z,101833.50
2023-01-22T06:25:48.546Z,101839.12
2023-01-22T06:28:19.629Z,101848.09
2023-01-22T06:30:50.469Z,101848.72
2023-01-22T06:33:21.095Z,101844.09
2023-01-22T06:35:56.137Z,101851.08
2023-01-22T06:38:26.394Z,101847.98
2023-01-22T06:40:58.078Z,101860.19
2023-01-22T06:43:29.470Z,101867.69
2023-01-22T06:46:00.181Z,101872.97
2023-01-22T06:48:30.777Z,101865.77
2023-01-22T06:51:01.599Z,101879.72
2023-01-22T06:53:32.313Z,101876.93
2023-01-22T06:56:03.150Z,101878.30
2023-01-22T06:58:35.417Z,101888.64
2023-01-22T07:01:07.873Z,101889.16
2023-01-22T07:03:38.783Z,101886.66
2023-01-22T07:06:10.868Z,101891.55
2023-01-22T07:08:41.552Z,101889.42
2023-01-22T07:11:13.818Z,101896.52
2023-01-22T07:13:44.854Z,101901.66
2023-01-22T07:16:15.572Z,101904.86
2023-01-22T07:18:46.298Z,101904.73
2023-01-22T07:21:17.065Z,101915.23
2023-01-22T07:23:47.739Z,101915.70
2023-01-22T07:26:21.290Z,101911.67
2023-01-22T07:28:51.922Z,101923.06
2023-01-22T07:31:22.798Z,101922.63
2023-01-22T07:33:53.346Z,101923.40
2023-01-22T07:36:26.885Z,101922.00
2023-01-22T07:39:00.967Z,101922.00
2023-01-22T07:41:33.844Z,101918.36
2023-01-22T07:44:04.584Z,101927.09
2023-01-22T07:46:36.658Z,101927.58
2023-01-22T07:49:13.221Z,101935.86
2023-01-22T07:51:44.045Z,101929.56
2023-01-22T07:54:18.632Z,101931.04
2023-01-22T07:56:49.328Z,101932.31
2023-01-22T07:59:22.746Z,101935.56
2023-01-22T08:01:54.994Z,101929.30
2023-01-22T08:04:25.935Z,101931.75
2023-01-22T08:06:56.973Z,101942.07
2023-01-22T08:09:27.670Z,101948.30
2023-01-22T08:11:59.404Z,101941.86
2023-01-22T08:14:31.338Z,101942.22
2023-01-22T08:17:02.164Z,101948.66
2023-01-22T08:19:32.841Z,101945.77
2023-01-22T08:22:03.711Z,101946.01
2023-01-22T08:24:37.243Z,101961.46
2023-01-22T08:27:07.909Z,101954.25
2023-01-22T08:29:39.816Z,101949.23
2023-01-22T08:32:11.661Z,101942.91
2023-01-22T08:34:42.340Z,101951.61
2023-01-22T08:37:13.348Z,101959.05
2023-01-22T08:39:44.037Z,101953.33
2023-01-22T08:42:14.615Z,101954.04
2023-01-22T08:44:45.283Z,101957.05
2023-01-22T08:47:18.366Z,101967.31
2023-01-22T08:49:49.039Z,101972.18
2023-01-22T08:52:22.078Z,101968.19
2023-01-22T08:54:54.468Z,101979.67
2023-01-22T08:57:25.197Z,101981.41
2023-01-22T09:00:01.004Z,101983.98
2023-01-22T09:02:28.404Z,101979.83
2023-01-22T09:04:59.822Z,101989.33
2023-01-22T09:07:30.479Z,101990.13
2023-01-22T09:10:01.116Z,101994.17
2023-01-22T09:12:31.688Z,101990.90
2023-01-22T09:15:02.280Z,102000.45
2023-01-22T09:17:32.879Z,101993.91
2023-01-22T09:20:03.552Z,101989.45
2023-01-22T09:22:34.209Z,102002.53
2023-01-22T09:25:05.364Z,102002.44
2023-01-22T09:27:36.039Z,101996.15
2023-01-22T09:30:07.736Z,101998.56
2023-01-22T09:32:38.825Z,101995.77
2023-01-22T09:35:09.842Z,101994.23
2023-01-22T09:37:40.742Z,101993.38
2023-01-22T09:40:17.959Z,101985.78
2023-01-22T09:42:49.201Z,101994.11
2023-01-22T09:45:22.785Z,101988.58
2023-01-22T09:47:56.293Z,101985.78
2023-01-22T09:50:29.840Z,101980.20
2023-01-22T09:53:03.383Z,101992.64
2023-01-22T09:55:36.888Z,101995.34
2023-01-22T09:58:10.374Z,102002.32
2023-01-22T10:00:56.355Z,101997.97
2023-01-22T10:03:35.655Z,101995.29
2023-01-22T10:06:14.585Z,101991.92
2023-01-22T10:09:02.558Z,101996.55
2023-01-22T10:11:33.269Z,101994.14
2023-01-22T10:14:05.810Z,101996.06
2023-01-22T10:16:37.570Z,101997.03
2023-01-22T10:19:27.247Z,101997.64
2023-01-22T10:22:02.126Z,102004.73
2023-01-22T10:24:32.703Z,102002.25
2023-01-22T10:27:12.972Z,102010.39
2023-01-22T10:29:46.422Z,102016.65
2023-01-22T10:32:25.719Z,102017.08
2023-01-22T10:35:02.069Z,102011.27
2023-01-22T10:37:48.438Z,102008.64
2023-01-22T10:40:27.838Z,102015.19
2023-01-22T10:43:05.542Z,102020.04
2023-01-22T10:45:36.220Z,102020.04
2023-01-22T10:48:17.558Z,102008.45
2023-01-22T10:50:49.993Z,102019.98
2023-01-22T10:53:26.506Z,102012.80
2023-01-22T10:56:01.060Z,102013.35
2023-01-22T10:58:35.554Z,102021.00
2023-01-22T11:01:08.821Z,102025.17
2023-01-22T11:03:40.785Z,102018.55
2023-01-22T11:06:23.353Z,102023.96
2023-01-22T11:08:59.758Z,102028.44
2023-01-22T11:11:41.310Z,102023.27
2023-01-22T11:14:26.569Z,102027.84
2023-01-22T11:17:00.092Z,102029.39
2023-01-22T11:19:37.462Z,102023.16
2023-01-22T11:22:08.856Z,102015.67
2023-01-22T11:24:42.969Z,102018.48
2023-01-22T11:27:28.555Z,102025.12
2023-01-22T11:30:14.832Z,102011.81
2023-01-22T11:32:57.565Z,102024.77
2023-01-22T11:35:37.039Z,102020.66
2023-01-22T11:38:38.114Z,102011.14
2023-01-22T11:41:28.041Z,102011.58
2023-01-22T11:44:10.584Z,102019.60
2023-01-22T11:47:09.366Z,102020.08
2023-01-22T11:49:49.014Z,102026.00
2023-01-22T11:52:54.466Z,102030.15
2023-01-22T11:55:33.638Z,102033.73
2023-01-22T11:58:29.537Z,102035.39
2023-01-22T12:01:12.689Z,102033.14
2023-01-22T12:04:02.907Z,102022.50
2023-01-22T12:06:48.587Z,102022.83
2023-01-22T12:09:38.129Z,102018.02
2023-01-22T12:12:29.744Z,102010.38
2023-01-22T12:15:09.079Z,102019.66
2023-01-22T12:18:00.459Z,102019.50
2023-01-22T12:20:42.915Z,102015.67
2023-01-22T12:23:25.218Z,102018.14
2023-01-22T12:26:01.270Z,102020.06
2023-01-22T12:28:49.874Z,102015.11
2023-01-22T12:31:35.447Z,102014.89
2023-01-22T12:34:08.799Z,102013.91
2023-01-22T12:36:40.961Z,102014.50
2023-01-22T12:39:24.289Z,102011.20
2023-01-22T12:42:06.999Z,102013.20
2023-01-22T12:44:49.102Z,102006.95
2023-01-22T12:47:34.892Z,102026.44
2023-01-22T12:50:06.991Z,102018.07
2023-01-22T12:52:39.851Z,102020.31
2023-01-22T12:55:35.256Z,102021.14
2023-01-22T12:58:06.399Z,102019.45
2023-01-22T13:00:39.430Z,102028.50
2023-01-22T13:03:32.445Z,102028.14
2023-01-22T13:06:20.107Z,102028.08
2023-01-22T13:08:51.828Z,102027.08
2023-01-22T13:11:37.400Z,102023.16
2023-01-22T13:14:21.275Z,102020.81
2023-01-22T13:17:06.949Z,102032.91
2023-01-22T13:19:46.639Z,102029.05
2023-01-22T13:22:25.747Z,102032.41
2023-01-22T13:24:58.334Z,102033.63
2023-01-22T13:27:34.857Z,102031.27
2023-01-22T13:30:17.858Z,102035.05
2023-01-22T13:32:48.944Z,102034.16
2023-01-22T13:35:25.524Z,102029.14
2023-01-22T13:37:56.699Z,102053.58
2023-01-22T13:40:36.996Z,102047.65
2023-01-22T13:43:01.847Z,102053.15
2023-01-22T13:45:34.943Z,102054.34
2023-01-22T13:48:14.991Z,102060.80
2023-01-22T13:50:57.783Z,102064.10
2023-01-22T13:53:34.412Z,102063.93
2023-01-22T13:56:10.433Z,102062.12
2023-01-22T13:58:48.419Z,102065.69
2023-01-22T14:01:33.757Z,102070.09
2023-01-22T14:04:07.569Z,102068.77
2023-01-22T14:06:49.829Z,102252.99
2023-01-22T14:09:28.408Z,102066.39
2023-01-22T14:12:00.376Z,102068.05
2023-01-22T14:14:34.040Z,102070.81
2023-01-22T14:17:04.708Z,102077.77
2023-01-22T14:19:35.372Z,102081.20
2023-01-22T14:22:05.983Z,102085.45
2023-01-22T14:24:40.256Z,102087.24
2023-01-22T14:27:10.857Z,102093.19
2023-01-22T14:29:41.787Z,102088.72
2023-01-22T14:32:12.469Z,102093.00
2023-01-22T14:34:43.019Z,102099.26
2023-01-22T14:37:21.339Z,102103.47
2023-01-22T14:39:51.971Z,102099.56
2023-01-22T14:42:24.400Z,102097.57
2023-01-22T14:44:56.616Z,102097.80
2023-01-22T14:47:27.203Z,102106.14
2023-01-22T14:49:57.795Z,102100.12
2023-01-22T14:52:28.660Z,102112.56
2023-01-22T14:54:59.609Z,102106.72
2023-01-22T14:57:31.345Z,102109.20
2023-01-22T15:00:04.344Z,102110.84
2023-01-22T15:02:36.907Z,102109.45
2023-01-22T15:05:10.670Z,102108.50
2023-01-22T15:07:41.758Z,102114.54
2023-01-22T15:10:13.749Z,102113.44
2023-01-22T15:12:50.430Z,102110.33
2023-01-22T15:15:24.942Z,102113.38
2023-01-22T15:17:57.401Z,102122.66
2023-01-22T15:20:28.339Z,102124.66
2023-01-22T15:22:59.187Z,102122.74
2023-01-22T15:25:29.791Z,102135.72
2023-01-22T15:28:01.504Z,102134.78
2023-01-22T15:30:33.343Z,102135.58
2023-01-22T15:33:04.342Z,102136.98
2023-01-22T15:35:35.078Z,102142.28
2023-01-22T15:38:05.808Z,102135.91
2023-01-22T15:40:41.725Z,102138.59
2023-01-22T15:43:12.289Z,102138.59
2023-01-22T15:45:42.895Z,102142.39
2023-01-22T15:48:15.344Z,102148.41
2023-01-22T15:50:45.933Z,102150.74
2023-01-22T15:53:16.589Z,102153.88
2023-01-22T15:55:53.154Z,102157.08
2023-01-22T15:58:24.110Z,102162.81
2023-01-22T16:00:57.191Z,102159.88
2023-01-22T16:03:30.132Z,102159.41
2023-01-22T16:06:19.783Z,102165.61
2023-01-22T16:08:57.839Z,102161.44
2023-01-22T16:11:31.162Z,102168.11
2023-01-22T16:14:02.249Z,102170.47
2023-01-22T16:16:44.890Z,102165.31
2023-01-22T16:19:19.683Z,102169.37
2023-01-22T16:21:51.961Z,102169.11
2023-01-22T16:24:22.551Z,102172.82
2023-01-22T16:26:53.265Z,102170.53
2023-01-22T16:29:23.947Z,102174.20
2023-01-22T16:31:54.636Z,102177.34
2023-01-22T16:34:25.256Z,102183.39
2023-01-22T16:36:57.678Z,102182.23
2023-01-22T16:39:28.469Z,102187.09
2023-01-22T16:41:59.157Z,102186.19
2023-01-22T16:44:31.917Z,102190.46
2023-01-22T16:47:02.348Z,102197.92
2023-01-22T16:49:34.564Z,102202.38
2023-01-22T16:52:21.914Z,102198.19
2023-01-22T16:54:42.849Z,102200.75
2023-01-22T16:57:14.124Z,102207.94
2023-01-22T16:59:44.722Z,102210.81
2023-01-22T17:02:19.481Z,102210.05
2023-01-22T17:04:50.332Z,102215.15
2023-01-22T17:07:33.201Z,102208.95
2023-01-22T17:09:55.020Z,102210.27
2023-01-22T17:12:26.967Z,102214.08
2023-01-22T17:14:57.972Z,102218.08
2023-01-22T17:17:29.123Z,102219.47
2023-01-22T17:20:00.724Z,102208.53
2023-01-22T17:22:34.271Z,102214.00
2023-01-22T17:25:07.080Z,102211.08
2023-01-22T17:27:40.184Z,102214.46
2023-01-22T17:30:12.370Z,102222.74
2023-01-22T17:32:46.986Z,102225.31
2023-01-22T17:35:19.311Z,102222.95
2023-01-22T17:37:50.178Z,102227.77
2023-01-22T17:40:21.057Z,102232.28
2023-01-22T17:43:19.363Z,102239.36
2023-01-22T17:45:51.723Z,102243.25
2023-01-22T17:48:23.741Z,102236.67
2023-01-22T17:50:57.370Z,102241.73
2023-01-22T17:53:32.885Z,102245.08
2023-01-22T17:56:06.138Z,102255.28
2023-01-22T17:58:40.128Z,102248.73
2023-01-22T18:01:12.769Z,102254.97
2023-01-22T18:03:47.091Z,102264.00
2023-01-22T18:06:29.105Z,102259.39
2023-01-22T18:09:01.030Z,102263.02
2023-01-22T18:11:35.589Z,102247.56
2023-01-22T18:14:08.825Z,102268.88
2023-01-22T18:16:41.059Z,102270.30
2023-01-22T18:19:12.156Z,102278.42
2023-01-22T18:21:44.277Z,102280.02
2023-01-22T18:24:15.417Z,102279.80
2023-01-22T18:26:46.321Z,102270.96
2023-01-22T18:29:17.781Z,102280.45
2023-01-22T18:31:50.734Z,102273.23
2023-01-22T18:34:22.807Z,102277.45
2023-01-22T18:36:54.584Z,102276.53
2023-01-22T18:39:26.267Z,102278.31
2023-01-22T18:41:56.890Z,102284.05
2023-01-22T18:44:32.543Z,102285.94
2023-01-22T18:47:03.627Z,102278.40
2023-01-22T18:49:34.355Z,102283.56
2023-01-22T18:52:08.740Z,102285.52
2023-01-22T18:54:43.460Z,102289.91
2023-01-22T18:57:14.054Z,102286.58
2023-01-22T18:59:45.078Z,102296.47
2023-01-22T19:02:18.398Z,102294.85
2023-01-22T19:04:49.246Z,102294.37
2023-01-22T19:07:19.973Z,102294.70
2023-01-22T19:09:51.949Z,102303.17
2023-01-22T19:12:22.574Z,102304.92
2023-01-22T19:14:54.148Z,102307.53
2023-01-22T19:17:25.856Z,102306.41
2023-01-22T19:19:56.439Z,102312.48
2023-01-22T19:22:27.475Z,102311.71
2023-01-22T19:24:58.123Z,102317.47
2023-01-22T19:27:30.175Z,102325.42
2023-01-22T19:30:01.093Z,102331.50
2023-01-22T19:32:33.425Z,102335.44
2023-01-22T19:35:04.084Z,102334.00
2023-01-22T19:37:35.310Z,102327.16
2023-01-22T19:40:07.511Z,102333.30
2023-01-22T19:42:40.023Z,102337.73
2023-01-22T19:45:11.120Z,102336.41
2023-01-22T19:47:41.859Z,102329.20
2023-01-22T19:50:12.933Z,102331.88
2023-01-22T19:52:43.719Z,102343.70
2023-01-22T19:55:15.572Z,102340.20
2023-01-22T19:57:46.207Z,102343.64
2023-01-22T20:00:17.331Z,102346.13
2023-01-22T20:02:47.992Z,102346.81
2023-01-22T20:05:21.073Z,102340.41
2023-01-22T20:07:51.843Z,102347.98
2023-01-22T20:10:22.448Z,102347.65
2023-01-22T20:12:54.142Z,102340.11
2023-01-22T20:15:25.964Z,102345.94
2023-01-22T20:17:59.551Z,102345.06
2023-01-22T20:20:30.234Z,102347.86
2023-01-22T20:23:00.854Z,102348.64
2023-01-22T20:25:32.280Z,102350.95
2023-01-22T20:28:03.481Z,102347.11
2023-01-22T20:30:34.706Z,102345.52
2023-01-22T20:33:05.729Z,102344.20
2023-01-22T20:35:36.676Z,102348.94
2023-01-22T20:38:07.509Z,102347.30
2023-01-22T20:40:41.689Z,102347.76
2023-01-22T20:43:13.944Z,102354.97
2023-01-22T20:45:45.066Z,102351.45
2023-01-22T20:48:17.423Z,102351.54
2023-01-22T20:50:49.824Z,102349.67
2023-01-22T20:53:20.659Z,102358.60
2023-01-22T20:56:06.457Z,102357.09
2023-01-22T20:58:37.789Z,102350.55
2023-01-22T21:01:18.768Z,102355.13
2023-01-22T21:03:50.980Z,102348.27
2023-01-22T21:06:22.291Z,102353.97
2023-01-22T21:08:56.183Z,102356.13
2023-01-22T21:11:31.759Z,102362.56
2023-01-22T21:14:05.305Z,102363.62
2023-01-22T21:16:39.166Z,102373.28
2023-01-22T21:19:16.146Z,102374.53
2023-01-22T21:21:49.048Z,102376.27
2023-01-22T21:24:20.696Z,102382.02
2023-01-22T21:26:53.078Z,102374.56
2023-01-22T21:29:25.599Z,102365.00
2023-01-22T21:31:56.556Z,102369.47
2023-01-22T21:34:28.586Z,102370.86
2023-01-22T21:37:04.184Z,102369.28
2023-01-22T21:39:34.972Z,102366.38
2023-01-22T21:42:19.081Z,102365.37
2023-01-22T21:45:07.210Z,102362.02
2023-01-22T21:47:38.065Z,102358.67
2023-01-22T21:50:09.728Z,102356.81
2023-01-22T21:52:42.995Z,102366.09
2023-01-22T21:55:15.070Z,102369.44
2023-01-22T21:57:45.997Z,102373.11
2023-01-22T22:00:17.889Z,102388.88
2023-01-22T22:02:48.646Z,102380.19
2023-01-22T22:05:19.890Z,102376.92
2023-01-22T22:07:50.618Z,102378.87
2023-01-22T22:10:21.669Z,102383.72
2023-01-22T22:12:53.923Z,102376.23
2023-01-22T22:15:24.498Z,102380.99
2023-01-22T22:17:55.165Z,102379.81
2023-01-22T22:20:25.871Z,102380.03
2023-01-22T22:22:56.669Z,102383.31
2023-01-22T22:25:27.635Z,102379.61
2023-01-22T22:27:59.160Z,102384.62
2023-01-22T22:30:31.393Z,102378.36
2023-01-22T22:33:02.090Z,102390.21
2023-01-22T22:35:34.592Z,102382.80
2023-01-22T22:38:05.451Z,102388.31
2023-01-22T22:40:36.209Z,102400.10
2023-01-22T22:43:20.063Z,102400.86
2023-01-22T22:45:50.899Z,102393.21
2023-01-22T22:48:21.608Z,102406.64
2023-01-22T22:50:53.955Z,102411.41
2023-01-22T22:53:29.014Z,102416.27
2023-01-22T22:55:59.621Z,102418.40
2023-01-22T22:58:30.459Z,102414.16
2023-01-22T23:01:04.166Z,102423.42
2023-01-22T23:03:37.408Z,102422.77
2023-01-22T23:06:26.333Z,102417.34
2023-01-22T23:09:36.317Z,102419.19
2023-01-22T23:12:13.927Z,102421.92
2023-01-22T23:14:47.523Z,102432.58
2023-01-22T23:17:20.284Z,102431.56
2023-01-22T23:19:59.061Z,102420.05
2023-01-22T23:22:33.788Z,102421.30
2023-01-22T23:25:07.552Z,102430.00
2023-01-22T23:27:40.929Z,102422.56
2023-01-22T23:30:31.639Z,102424.61
2023-01-22T23:33:04.560Z,102425.27
2023-01-22T23:35:41.082Z,102421.02
2023-01-22T23:38:15.754Z,102427.14
2023-01-22T23:40:50.124Z,102435.59
2023-01-22T23:43:25.107Z,102441.53
2023-01-22T23:45:55.869Z,102429.61
2023-01-22T23:48:27.238Z,102435.42
2023-01-22T23:50:57.824Z,102442.92
2023-01-22T23:53:29.241Z,102450.27
2023-01-22T23:56:04.326Z,102445.52
2023-01-22T23:58:35.805Z,102449.66
